Time;durP1;ratioP1;P1;durP2;ratioP2;P2;SDS_P1;SDS_P2;PMS_P1;PMS_P2;Temp;Humidity;BMP_temperature;BMP_pressure;BME280_temperature;BME280_humidity;BME280_pressure;Samples;Min_cycle;Max_cycle;Signal;HPM_P1;HPM_P2
2022/06/20 00:01:03;;;;;;;9.82;3.05;;;;;;;-145.76;100.00;65039.31;5065174;28;20078;-69
2022/06/20 00:03:32;;;;;;;10.32;2.90;;;;;;;-145.76;100.00;65039.31;5064380;28;20488;-69
2022/06/20 00:05:57;;;;;;;9.80;2.78;;;;;;;-145.76;100.00;65039.31;5061432;28;20043;-69
2022/06/20 00:08:23;;;;;;;12.52;2.88;;;;;;;-145.76;100.00;65039.31;5063961;28;20028;-69
2022/06/20 00:10:50;;;;;;;14.38;3.38;;;;;;;-145.76;100.00;65039.31;5059043;28;20051;-69
2022/06/20 00:13:25;;;;;;;11.90;2.88;;;;;;;-145.76;100.00;65039.31;5064670;28;20032;-69
2022/06/20 00:15:52;;;;;;;13.45;3.33;;;;;;;-145.76;100.00;65039.31;5055845;28;20082;-69
2022/06/20 00:18:18;;;;;;;12.98;3.30;;;;;;;-145.76;100.00;65039.31;5037867;28;20024;-69
2022/06/20 00:20:43;;;;;;;12.65;3.80;;;;;;;-145.76;100.00;65039.31;5058847;28;20309;-69
2022/06/20 00:23:09;;;;;;;10.88;3.15;;;;;;;-145.76;100.00;65039.31;5060877;28;20036;-69
2022/06/20 00:25:35;;;;;;;13.82;3.47;;;;;;;-145.76;100.00;65039.31;5061139;28;20033;-69
2022/06/20 00:28:01;;;;;;;12.70;3.33;;;;;;;-145.76;100.00;65039.31;5063672;28;20392;-69
2022/06/20 00:30:26;;;;;;;9.57;3.30;;;;;;;-145.76;100.00;65039.31;5072124;28;20017;-69
2022/06/20 00:32:51;;;;;;;9.77;3.53;;;;;;;-145.76;100.00;65039.31;5067790;28;20051;-69
2022/06/20 00:35:17;;;;;;;11.35;3.65;;;;;;;-145.76;100.00;65039.31;5051931;28;20424;-69
2022/06/20 00:37:42;;;;;;;15.50;3.85;;;;;;;-145.76;100.00;65039.31;5055474;28;20024;-69
2022/06/20 00:40:31;;;;;;;15.35;5.10;;;;;;;-145.76;100.00;65039.31;5069404;28;20029;-69
2022/06/20 00:42:57;;;;;;;14.82;4.18;;;;;;;-145.76;100.00;65039.31;5068693;28;20020;-69
2022/06/20 00:45:23;;;;;;;16.38;3.70;;;;;;;-145.76;100.00;65039.31;5066859;28;20389;-69
2022/06/20 00:47:50;;;;;;;15.40;3.75;;;;;;;-145.76;100.00;65039.31;5049737;28;20028;-69
2022/06/20 00:50:22;;;;;;;12.73;3.53;;;;;;;-145.76;100.00;65039.31;5067884;28;20124;-69
2022/06/20 00:52:59;;;;;;;9.55;3.80;;;;;;;-145.76;100.00;65039.31;5070209;28;20033;-69
2022/06/20 00:55:34;;;;;;;11.00;3.80;;;;;;;-145.76;100.00;65039.31;5059593;28;20470;-69
2022/06/20 00:58:05;;;;;;;14.57;4.03;;;;;;;-145.76;100.00;65039.31;5059342;28;20048;-69
2022/06/20 01:00:33;;;;;;;9.60;3.28;;;;;;;-145.76;100.00;65039.31;5050093;28;20040;-69
2022/06/20 01:03:11;;;;;;;9.38;3.85;;;;;;;-145.76;100.00;65039.31;5058901;28;20039;-69
2022/06/20 01:05:47;;;;;;;13.10;4.00;;;;;;;-145.76;100.00;65039.31;5070951;28;20032;-69
2022/06/20 01:08:17;;;;;;;10.30;3.80;;;;;;;-145.76;100.00;65039.31;5065280;28;20058;-69
2022/06/20 01:10:47;;;;;;;12.75;3.78;;;;;;;-145.76;100.00;65039.31;5068736;28;20562;-69
2022/06/20 01:13:18;;;;;;;13.68;4.03;;;;;;;-145.76;100.00;65039.31;5068085;28;20051;-69
2022/06/20 01:15:44;;;;;;;12.90;3.97;;;;;;;-145.76;100.00;65039.31;5068894;28;20054;-69
2022/06/20 01:18:30;;;;;;;15.00;4.38;;;;;;;-145.76;100.00;65039.31;5070681;28;20115;-69
2022/06/20 01:20:57;;;;;;;11.13;3.95;;;;;;;-145.76;100.00;65039.31;5070966;28;20116;-69
2022/06/20 01:23:35;;;;;;;13.25;3.90;;;;;;;-145.76;100.00;65039.31;5070969;28;20051;-69
2022/06/20 01:26:14;;;;;;;8.68;4.00;;;;;;;-145.76;100.00;65039.31;5051392;28;20029;-69
2022/06/20 01:28:43;;;;;;;12.65;4.43;;;;;;;-145.76;100.00;65039.31;5053192;28;20032;-69
2022/06/20 01:31:09;;;;;;;9.70;3.70;;;;;;;-145.76;100.00;65039.31;5058901;28;20033;-69
2022/06/20 01:33:35;;;;;;;12.48;4.55;;;;;;;-145.76;100.00;65039.31;5049496;28;20533;-69
2022/06/20 01:38:45;;;;;;;11.60;4.40;;;;;;;-145.76;100.00;65039.31;5070472;28;20074;-69
2022/06/20 01:43:58;;;;;;;13.00;4.03;;;;;;;-145.76;100.00;65039.31;5064561;28;20453;-69
2022/06/20 01:46:29;;;;;;;14.82;4.05;;;;;;;-145.76;100.00;65039.31;5068314;28;20111;-69
2022/06/20 01:48:59;;;;;;;13.20;3.80;;;;;;;-145.76;100.00;65039.31;5065628;28;20024;-69
2022/06/20 01:51:27;;;;;;;9.43;3.38;;;;;;;-145.76;100.00;65039.31;5067039;28;20549;-69
2022/06/20 01:53:54;;;;;;;12.00;4.10;;;;;;;-145.76;100.00;65039.31;5068105;28;20116;-69
2022/06/20 01:56:21;;;;;;;11.27;3.35;;;;;;;-145.76;100.00;65039.31;5052649;28;20130;-69
2022/06/20 01:58:59;;;;;;;9.05;3.03;;;;;;;-145.76;100.00;65039.31;5051089;28;20024;-69
2022/06/20 02:01:26;;;;;;;12.40;3.92;;;;;;;-145.76;100.00;65039.31;5064837;28;20028;-69
2022/06/20 02:03:51;;;;;;;13.27;3.63;;;;;;;-145.76;100.00;65039.31;5066700;28;20032;-69
2022/06/20 02:06:17;;;;;;;11.18;3.40;;;;;;;-145.76;100.00;65039.31;5068678;28;20036;-69
2022/06/20 02:08:47;;;;;;;16.08;3.90;;;;;;;-145.76;100.00;65039.31;5068115;28;20118;-69
2022/06/20 02:11:31;;;;;;;12.95;3.35;;;;;;;-145.76;100.00;65039.31;5068627;28;20094;-69
2022/06/20 02:14:02;;;;;;;8.23;3.55;;;;;;;-145.76;100.00;65039.31;5065612;28;20530;-69
2022/06/20 02:16:30;;;;;;;12.73;3.58;;;;;;;-145.76;100.00;65039.31;5059884;28;20036;-69
2022/06/20 02:18:59;;;;;;;10.82;3.97;;;;;;;-145.76;100.00;65039.31;5054844;28;20426;-69
2022/06/20 02:21:26;;;;;;;12.88;3.75;;;;;;;-145.76;100.00;65039.31;5049852;28;20036;-69
2022/06/20 02:23:57;;;;;;;10.90;3.88;;;;;;;-145.76;100.00;65039.31;5068823;28;20516;-69
2022/06/20 02:26:23;;;;;;;11.25;3.55;;;;;;;-145.76;100.00;65039.31;5066742;28;20032;-69
2022/06/20 02:29:04;;;;;;;12.30;3.78;;;;;;;-145.76;100.00;65039.31;5068287;28;20032;-69
2022/06/20 02:31:29;;;;;;;10.23;3.60;;;;;;;-145.76;100.00;65039.31;5074710;28;20508;-69
2022/06/20 02:33:55;;;;;;;14.57;3.47;;;;;;;-145.76;100.00;65039.31;5058955;28;20034;-69
2022/06/20 02:36:21;;;;;;;9.27;3.45;;;;;;;-145.76;100.00;65039.31;5067422;28;20086;-69
2022/06/20 02:38:47;;;;;;;13.57;4.05;;;;;;;-145.76;100.00;65039.31;5069388;28;20359;-69
2022/06/20 02:41:14;;;;;;;11.68;4.25;;;;;;;-145.76;100.00;65039.31;5053946;28;20381;-69
2022/06/20 02:43:46;;;;;;;13.82;3.75;;;;;;;-145.76;100.00;65039.31;5060209;28;20032;-69
2022/06/20 02:46:15;;;;;;;18.80;4.22;;;;;;;-145.76;100.00;65039.31;5047556;28;20580;-69
2022/06/20 02:48:44;;;;;;;13.15;4.25;;;;;;;-145.76;100.00;65039.31;5058960;28;20405;-69
2022/06/20 02:51:13;;;;;;;8.55;4.10;;;;;;;-145.76;100.00;65039.31;5066822;28;20021;-69
2022/06/20 02:53:41;;;;;;;14.98;3.92;;;;;;;-145.76;100.00;65039.31;5068159;28;20032;-69
2022/06/20 02:56:10;;;;;;;13.52;4.43;;;;;;;-145.76;100.00;65039.31;5067686;28;20033;-69
2022/06/20 02:58:40;;;;;;;11.85;4.47;;;;;;;-145.76;100.00;65039.31;5067470;28;20066;-69
2022/06/20 03:01:23;;;;;;;12.45;5.00;;;;;;;-145.76;100.00;65039.31;5059349;28;20017;-69
2022/06/20 03:03:51;;;;;;;13.40;4.20;;;;;;;-145.76;100.00;65039.31;5048378;28;20036;-69
2022/06/20 03:06:24;;;;;;;9.50;3.70;;;;;;;-145.76;100.00;65039.31;5046200;28;20492;-69
2022/06/20 03:08:50;;;;;;;11.50;3.90;;;;;;;-145.76;100.00;65039.31;5061023;28;20024;-69
2022/06/20 03:11:16;;;;;;;14.88;4.28;;;;;;;-145.76;100.00;65039.31;5067912;28;20090;-69
2022/06/20 03:13:42;;;;;;;12.30;4.57;;;;;;;-145.76;100.00;65039.31;5061935;28;20043;-69
2022/06/20 03:16:07;;;;;;;17.15;4.78;;;;;;;-145.76;100.00;65039.31;5049786;28;20036;-69
2022/06/20 03:18:38;;;;;;;11.88;4.35;;;;;;;-145.76;100.00;65039.31;5061462;28;20040;-69
2022/06/20 03:21:05;;;;;;;13.40;4.20;;;;;;;-145.76;100.00;65039.31;5062019;28;20494;-69
2022/06/20 03:23:32;;;;;;;8.68;4.00;;;;;;;-145.76;100.00;65039.31;5062213;28;20032;-69
2022/06/20 03:26:02;;;;;;;10.45;3.97;;;;;;;-145.76;100.00;65039.31;5050925;28;20035;-69
2022/06/20 03:28:29;;;;;;;9.60;4.00;;;;;;;-145.76;100.00;65039.31;5058346;28;20032;-69
2022/06/20 03:30:57;;;;;;;15.98;4.65;;;;;;;-145.76;100.00;65039.31;5062539;28;20060;-69
2022/06/20 03:33:22;;;;;;;14.50;4.82;;;;;;;-145.76;100.00;65039.31;5061137;28;20037;-69
2022/06/20 03:36:00;;;;;;;12.68;4.38;;;;;;;-145.76;100.00;65039.31;5067175;28;20020;-69
2022/06/20 03:38:26;;;;;;;10.77;4.15;;;;;;;-145.76;100.00;65039.31;5057092;28;20029;-69
2022/06/20 03:40:51;;;;;;;10.88;4.20;;;;;;;-145.76;100.00;65039.31;5059136;28;20483;-69
2022/06/20 03:43:20;;;;;;;9.77;3.50;;;;;;;-145.76;100.00;65039.31;5067288;28;20029;-69
2022/06/20 03:46:02;;;;;;;10.27;3.60;;;;;;;-145.76;100.00;65039.31;5060349;28;20066;-69
2022/06/20 03:48:32;;;;;;;10.98;4.13;;;;;;;-145.76;100.00;65039.31;5054729;28;20040;-69
2022/06/20 03:51:02;;;;;;;16.25;4.28;;;;;;;-145.76;100.00;65039.31;5058671;28;20032;-69
2022/06/20 03:53:30;;;;;;;11.35;3.83;;;;;;;-145.76;100.00;65039.31;5072534;28;20036;-69
2022/06/20 03:55:59;;;;;;;11.85;3.65;;;;;;;-145.76;100.00;65039.31;5073261;28;20106;-69
2022/06/20 03:58:53;;;;;;;19.00;4.70;;;;;;;-145.76;100.00;65039.31;5056087;28;20060;-69
2022/06/20 04:01:21;;;;;;;;;;;;;;;-145.76;100.00;65039.31;5050713;28;20064;-69
2022/06/20 04:03:59;;;;;;;12.25;4.72;;;;;;;-145.76;100.00;65039.31;5052264;28;19913;-69
2022/06/20 04:06:41;;;;;;;18.45;4.65;;;;;;;-145.76;100.00;65039.31;5052822;28;20029;-69
2022/06/20 04:12:29;;;;;;;13.93;4.53;;;;;;;-145.76;100.00;65039.31;5053229;28;20159;-69
2022/06/20 04:15:11;;;;;;;9.52;4.65;;;;;;;-145.76;100.00;65039.31;5051229;28;20407;-69
2022/06/20 04:20:39;;;;;;;14.48;5.18;;;;;;;-145.76;100.00;65039.31;5053113;28;20150;-69
2022/06/20 04:23:10;;;;;;;11.02;4.60;;;;;;;-145.76;100.00;65039.31;5052678;28;20044;-69
2022/06/20 04:25:45;;;;;;;22.98;5.30;;;;;;;-145.76;100.00;65039.31;5034996;28;20472;-69
2022/06/20 04:28:26;;;;;;;12.10;4.88;;;;;;;-145.76;100.00;65039.31;5053035;28;20029;-69
2022/06/20 04:31:02;;;;;;;15.55;5.30;;;;;;;-145.76;100.00;65039.31;5051870;28;20500;-69
2022/06/20 04:33:39;;;;;;;17.10;4.32;;;;;;;-145.76;100.00;65039.31;5056396;28;20028;-69
2022/06/20 04:36:11;;;;;;;12.10;4.82;;;;;;;-145.76;100.00;65039.31;5070951;28;20060;-69
2022/06/20 04:38:44;;;;;;;13.13;4.25;;;;;;;-145.76;100.00;65039.31;5073046;28;20036;-69
2022/06/20 04:41:14;;;;;;;11.77;4.43;;;;;;;-145.76;100.00;65039.31;5054084;28;20012;-69
2022/06/20 04:43:50;;;;;;;9.10;3.95;;;;;;;-145.76;100.00;65039.31;5054538;28;20037;-69
2022/06/20 04:46:21;;;;;;;10.55;3.97;;;;;;;-145.76;100.00;65039.31;5060822;28;20080;-69
2022/06/20 04:48:47;;;;;;;12.00;3.90;;;;;;;-145.76;100.00;65039.31;5060263;28;20029;-69
2022/06/20 04:51:15;;;;;;;8.30;3.55;;;;;;;-145.76;100.00;65039.31;5060388;28;20025;-69
2022/06/20 04:53:42;;;;;;;14.57;4.85;;;;;;;-145.76;100.00;65039.31;5072378;28;20107;-69
2022/06/20 04:56:12;;;;;;;10.20;4.03;;;;;;;-145.76;100.00;65039.31;5057861;28;20029;-69
2022/06/20 04:58:44;;;;;;;9.32;3.05;;;;;;;-145.76;100.00;65039.31;5053826;28;20043;-69
2022/06/20 05:01:10;;;;;;;11.88;3.40;;;;;;;-145.76;100.00;65039.31;5072707;28;20021;-69
2022/06/20 05:03:39;;;;;;;11.52;2.90;;;;;;;-145.76;100.00;65039.31;5071014;28;20036;-69
2022/06/20 05:06:06;;;;;;;13.07;3.53;;;;;;;-145.76;100.00;65039.31;5071147;28;20024;-69
2022/06/20 05:08:35;;;;;;;10.02;3.92;;;;;;;-145.76;100.00;65039.31;5053920;28;20095;-69
2022/06/20 05:11:24;;;;;;;9.38;3.65;;;;;;;-145.76;100.00;65039.31;5051362;28;20045;-69
2022/06/20 05:14:03;;;;;;;14.90;3.60;;;;;;;-145.76;100.00;65039.31;5048802;28;20049;-69
2022/06/20 05:16:39;;;;;;;14.55;4.13;;;;;;;-145.76;100.00;65039.31;5051961;28;20033;-69
2022/06/20 05:19:10;;;;;;;11.88;2.78;;;;;;;-145.76;100.00;65039.31;5044789;28;20481;-69
2022/06/20 05:21:40;;;;;;;15.43;3.97;;;;;;;-145.76;100.00;65039.31;5061155;28;20020;-69
2022/06/20 05:24:11;;;;;;;11.30;2.95;;;;;;;-145.76;100.00;65039.31;5058403;28;20119;-69
2022/06/20 05:26:40;;;;;;;9.90;3.63;;;;;;;-145.76;100.00;65039.31;5054434;28;20044;-69
2022/06/20 05:29:09;;;;;;;14.40;3.30;;;;;;;-145.76;100.00;65039.31;5059886;28;20029;-69
2022/06/20 05:31:37;;;;;;;12.57;3.75;;;;;;;-145.76;100.00;65039.31;5050479;28;20120;-69
2022/06/20 05:34:10;;;;;;;15.48;3.47;;;;;;;-145.76;100.00;65039.31;5053844;28;20028;-69
2022/06/20 05:37:05;;;;;;;14.27;2.92;;;;;;;-145.76;100.00;65039.31;5069058;28;20029;-69
2022/06/20 05:39:37;;;;;;;13.43;3.65;;;;;;;-145.76;100.00;65039.31;5051633;28;20492;-69
2022/06/20 05:42:03;;;;;;;10.52;3.15;;;;;;;-145.76;100.00;65039.31;5049892;28;20029;-69
2022/06/20 05:44:29;;;;;;;11.93;3.40;;;;;;;-145.76;100.00;65039.31;5051752;28;20032;-69
2022/06/20 05:47:05;;;;;;;17.35;3.38;;;;;;;-145.76;100.00;65039.31;5054662;28;20028;-69
2022/06/20 05:49:35;;;;;;;11.10;2.75;;;;;;;-145.76;100.00;65039.31;5046361;28;20466;-73
2022/06/20 05:52:02;;;;;;;10.55;3.38;;;;;;;-145.76;100.00;65039.31;5055594;28;20352;-69
2022/06/20 05:54:35;;;;;;;13.68;3.35;;;;;;;-145.76;100.00;65039.31;5057649;28;20492;-69
2022/06/20 05:57:06;;;;;;;;;;;;;;;-145.76;100.00;65039.31;5060251;28;20033;-69
2022/06/20 05:59:41;;;;;;;13.02;4.30;;;;;;;-145.76;100.00;65039.31;5060768;28;19916;-69
2022/06/20 06:02:14;;;;;;;11.57;2.85;;;;;;;-145.76;100.00;65039.31;5060634;28;20247;-69
2022/06/20 06:04:45;;;;;;;12.38;3.58;;;;;;;-145.76;100.00;65039.31;5052479;28;20036;-69
2022/06/20 06:07:17;;;;;;;12.75;3.42;;;;;;;-145.76;100.00;65039.31;5056326;28;20024;-69
2022/06/20 06:10:58;;;;;;;8.43;3.33;;;;;;;-145.76;100.00;65039.31;5024638;28;20448;-76
2022/06/20 06:13:58;;;;;;;12.95;3.63;;;;;;;-145.76;100.00;65039.31;5001678;28;20104;-76
2022/06/20 06:16:47;;;;;;;15.27;3.33;;;;;;;-145.76;100.00;65039.31;4998937;28;20399;-76
2022/06/20 06:19:15;;;;;;;9.20;3.17;;;;;;;-145.76;100.00;65039.31;5001824;28;20053;-76
2022/06/20 06:21:41;;;;;;;10.98;3.22;;;;;;;-145.76;100.00;65039.31;5005753;28;20080;-76
2022/06/20 06:24:10;;;;;;;10.43;3.20;;;;;;;-145.76;100.00;65039.31;5003975;28;20067;-76
2022/06/20 06:26:36;;;;;;;12.05;4.00;;;;;;;-145.76;100.00;65039.31;5000405;28;20182;-76
2022/06/20 06:29:03;;;;;;;14.85;4.18;;;;;;;-145.76;100.00;65039.31;4996633;28;20030;-76
2022/06/20 06:31:32;;;;;;;11.18;4.53;;;;;;;-145.76;100.00;65039.31;5019404;28;20060;-76
2022/06/20 06:34:02;;;;;;;13.60;3.60;;;;;;;-145.76;100.00;65039.31;5001161;28;20386;-76
2022/06/20 06:36:41;;;;;;;16.17;4.03;;;;;;;-145.76;100.00;65039.31;5001606;28;20433;-76
2022/06/20 06:39:09;;;;;;;14.75;4.03;;;;;;;-145.76;100.00;65039.31;5000025;28;20036;-76
2022/06/20 06:41:37;;;;;;;12.32;3.70;;;;;;;-145.76;100.00;65039.31;5006890;28;20514;-76
2022/06/20 06:44:31;;;;;;;12.50;3.80;;;;;;;-145.76;100.00;65039.31;5005582;28;20025;-75
2022/06/20 06:46:57;;;;;;;11.50;3.65;;;;;;;-145.76;100.00;65039.31;5015319;28;20030;-76
2022/06/20 06:49:28;;;;;;;12.27;4.18;;;;;;;-145.76;100.00;65039.31;4995938;28;20050;-76
2022/06/20 06:51:56;;;;;;;12.65;4.28;;;;;;;-145.76;100.00;65039.31;5000090;28;20054;-76
2022/06/20 06:54:32;;;;;;;13.90;4.07;;;;;;;-145.76;100.00;65039.31;5002376;28;20037;-76
2022/06/20 06:57:05;;;;;;;10.18;4.10;;;;;;;-145.76;100.00;65039.31;4985787;28;20603;-76
2022/06/20 06:59:46;;;;;;;11.65;4.15;;;;;;;-145.76;100.00;65039.31;5003359;28;20019;-76
2022/06/20 07:02:15;;;;;;;12.05;3.40;;;;;;;-145.76;100.00;65039.31;4986093;28;20027;-76
2022/06/20 07:04:50;;;;;;;10.75;3.55;;;;;;;-145.76;100.00;65039.31;5001652;28;20077;-76
2022/06/20 07:07:42;;;;;;;13.18;3.63;;;;;;;-145.76;100.00;65039.31;5002240;28;20114;-76
2022/06/20 07:10:32;;;;;;;14.65;4.05;;;;;;;-145.76;100.00;65039.31;4983486;28;20046;-76
2022/06/20 07:13:06;;;;;;;16.75;4.50;;;;;;;-145.76;100.00;65039.31;4986131;28;20038;-76
2022/06/20 07:15:32;;;;;;;16.13;4.60;;;;;;;-145.76;100.00;65039.31;4986239;28;20029;-76
2022/06/20 07:18:19;;;;;;;11.60;3.75;;;;;;;-145.76;100.00;65039.31;4985349;28;20030;-76
2022/06/20 07:20:45;;;;;;;10.60;3.90;;;;;;;-145.76;100.00;65039.31;4981447;28;20455;-76
2022/06/20 07:23:15;;;;;;;24.33;4.35;;;;;;;-145.76;100.00;65039.31;4972926;28;20031;-76
2022/06/20 07:25:43;;;;;;;13.63;3.67;;;;;;;-145.76;100.00;65039.31;4956412;28;20089;-76
2022/06/20 07:28:15;;;;;;;8.82;3.92;;;;;;;-145.76;100.00;65039.31;4972899;28;20023;-76
2022/06/20 07:30:44;;;;;;;15.48;4.15;;;;;;;-145.76;100.00;65039.31;4974436;28;20038;-76
2022/06/20 07:33:24;;;;;;;14.00;4.32;;;;;;;-145.76;100.00;65039.31;4972300;28;20023;-76
2022/06/20 07:35:52;;;;;;;14.13;5.18;;;;;;;-145.76;100.00;65039.31;4973149;28;20113;-76
2022/06/20 07:38:21;;;;;;;14.60;4.00;;;;;;;-145.76;100.00;65039.31;4956087;28;20029;-76
2022/06/20 07:41:13;;;;;;;18.35;3.55;;;;;;;-145.76;100.00;65039.31;4969739;28;20126;-76
2022/06/20 07:43:48;;;;;;;12.80;3.75;;;;;;;-145.76;100.00;65039.31;4954726;28;20126;-76
2022/06/20 07:46:23;;;;;;;15.10;3.58;;;;;;;-145.76;100.00;65039.31;4952866;28;20023;-76
2022/06/20 07:48:50;;;;;;;10.55;3.55;;;;;;;-145.76;100.00;65039.31;4969620;28;20027;-76
2022/06/20 07:51:19;;;;;;;12.30;4.10;;;;;;;-145.76;100.00;65039.31;4953433;29;20087;-76
2022/06/20 07:53:54;;;;;;;17.58;4.45;;;;;;;-145.76;100.00;65039.31;4953067;29;20031;-76
2022/06/20 07:56:29;;;;;;;16.65;3.53;;;;;;;-145.76;100.00;65039.31;4953658;29;20029;-76
2022/06/20 07:58:58;;;;;;;12.65;3.45;;;;;;;-145.76;100.00;65039.31;4953084;28;20027;-76
2022/06/20 08:01:42;;;;;;;11.70;3.20;;;;;;;-145.76;100.00;65039.31;4952420;29;20118;-76
2022/06/20 08:04:09;;;;;;;13.05;3.63;;;;;;;-145.76;100.00;65039.31;4953384;29;20134;-76
2022/06/20 08:06:42;;;;;;;12.23;3.30;;;;;;;-145.76;100.00;65039.31;4968762;28;20047;-76
2022/06/20 08:09:21;;;;;;;15.85;4.25;;;;;;;-145.76;100.00;65039.31;4963338;28;20071;-76
2022/06/20 08:11:58;;;;;;;17.75;3.20;;;;;;;-145.76;100.00;65039.31;4955380;28;20048;-76
2022/06/20 08:14:38;;;;;;;7.45;2.88;;;;;;;-145.76;100.00;65039.31;4972115;28;20031;-76
2022/06/20 08:17:08;;;;;;;9.40;3.22;;;;;;;-145.76;100.00;65039.31;4952981;29;20034;-76
2022/06/20 08:19:34;;;;;;;12.65;3.90;;;;;;;-145.76;100.00;65039.31;4968723;28;20078;-76
2022/06/20 08:22:23;;;;;;;15.32;3.10;;;;;;;-145.76;100.00;65039.31;4956007;28;20030;-76
2022/06/20 08:24:56;;;;;;;13.57;3.28;;;;;;;-145.76;100.00;65039.31;4972050;28;20403;-76
2022/06/20 08:27:27;;;;;;;11.70;2.60;;;;;;;-145.76;100.00;65039.31;4971959;28;20034;-76
2022/06/20 08:30:11;;;;;;;11.02;2.63;;;;;;;-145.76;100.00;65039.31;4971062;28;20030;-76
2022/06/20 08:32:49;;;;;;;13.63;4.03;;;;;;;-145.76;100.00;65039.31;4971883;28;20455;-76
2022/06/20 08:35:36;;;;;;;12.50;3.38;;;;;;;-145.76;100.00;65039.31;4972021;28;20034;-76
2022/06/20 08:38:09;;;;;;;11.80;2.97;;;;;;;-145.76;100.00;65039.31;4972482;28;20038;-76
2022/06/20 08:40:34;;;;;;;8.00;2.50;;;;;;;-145.76;100.00;65039.31;4970806;28;20109;-77
2022/06/20 08:43:28;;;;;;;7.55;2.35;;;;;;;-145.76;100.00;65039.31;4969995;28;20125;-77
2022/06/20 08:45:53;;;;;;;8.30;2.45;;;;;;;-145.76;100.00;65039.31;4971579;28;20022;-77
2022/06/20 08:48:44;;;;;;;7.25;2.38;;;;;;;-145.76;100.00;65039.31;4973044;28;20427;-77
2022/06/20 08:52:06;;;;;;;12.75;3.17;;;;;;;-145.76;100.00;65039.31;4972408;28;20447;-77
2022/06/20 08:54:48;;;;;;;8.32;2.83;;;;;;;-145.76;100.00;65039.31;4972849;28;20435;-74
2022/06/20 08:57:19;;;;;;;12.80;3.13;;;;;;;-145.76;100.00;65039.31;4971639;28;20034;-74
2022/06/20 08:59:57;;;;;;;9.95;2.47;;;;;;;-145.76;100.00;65039.31;4972554;28;20023;-74
2022/06/20 09:03:04;;;;;;;7.68;2.53;;;;;;;-145.76;100.00;65039.31;4970855;28;20038;-74
2022/06/20 09:05:38;;;;;;;11.63;2.67;;;;;;;-145.76;100.00;65039.31;4970889;28;20019;-74
2022/06/20 09:08:30;;;;;;;8.75;2.95;;;;;;;-145.76;100.00;65039.31;4970302;28;20039;-76
2022/06/20 09:11:14;;;;;;;9.50;2.90;;;;;;;-145.76;100.00;65039.31;4969932;28;20035;-76
2022/06/20 09:14:25;;;;;;;7.13;2.03;;;;;;;-145.76;100.00;65039.31;4971226;28;20051;-76
2022/06/20 09:17:15;;;;;;;6.65;2.20;;;;;;;-145.76;100.00;65039.31;4970318;28;20026;-77
2022/06/20 09:20:06;;;;;;;10.45;2.65;;;;;;;-145.76;100.00;65039.31;4972250;28;20125;-76
2022/06/20 09:22:34;;;;;;;12.15;2.95;;;;;;;-145.76;100.00;65039.31;4970828;28;20106;-76
2022/06/20 09:25:11;;;;;;;8.48;2.10;;;;;;;-145.76;100.00;65039.31;4971035;28;20041;-74
2022/06/20 09:28:20;;;;;;;8.13;1.90;;;;;;;-145.76;100.00;65039.31;4972209;28;20089;-75
2022/06/20 09:30:52;;;;;;;6.05;2.00;;;;;;;-145.76;100.00;65039.31;4970726;28;20038;-75
2022/06/20 09:33:43;;;;;;;5.50;1.70;;;;;;;-145.76;100.00;65039.31;4971535;28;20034;-75
2022/06/20 09:36:26;;;;;;;8.93;2.58;;;;;;;-145.76;100.00;65039.31;4971839;28;20479;-75
2022/06/20 09:38:56;;;;;;;;;;;;;;;-145.76;100.00;65039.31;4970258;28;20033;-75
2022/06/20 09:41:39;;;;;;;8.45;2.30;;;;;;;-145.76;100.00;65039.31;4986482;28;19921;-75
2022/06/20 09:44:10;;;;;;;5.53;2.22;;;;;;;-145.76;100.00;65039.31;4971186;28;20117;-75
2022/06/20 09:47:00;;;;;;;8.65;1.75;;;;;;;-145.76;100.00;65039.31;4969998;28;20022;-75
2022/06/20 09:49:34;;;;;;;4.60;1.58;;;;;;;-145.76;100.00;65039.31;4972121;28;20058;-74
2022/06/20 09:52:15;;;;;;;7.50;1.90;;;;;;;-145.76;100.00;65039.31;4971061;28;20031;-75
2022/06/20 09:55:02;;;;;;;7.30;1.80;;;;;;;-145.76;100.00;65039.31;4972933;28;20127;-75
2022/06/20 09:57:40;;;;;;;6.38;1.90;;;;;;;-145.76;100.00;65039.31;4982312;28;20433;-77
2022/06/20 10:00:11;;;;;;;7.20;2.17;;;;;;;-145.76;100.00;65039.31;4984153;28;20034;-68
2022/06/20 10:02:42;;;;;;;5.43;2.25;;;;;;;-145.76;100.00;65039.31;4997866;28;20478;-70
2022/06/20 10:05:45;;;;;;;9.02;2.17;;;;;;;-145.76;100.00;65039.31;5007805;28;20390;-70
2022/06/20 10:08:44;;;;;;;6.97;1.60;;;;;;;-145.76;100.00;65039.31;4988547;28;20038;-70
2022/06/20 10:11:25;;;;;;;5.28;1.70;;;;;;;-145.76;100.00;65039.31;4990046;28;20262;-70
2022/06/20 10:14:07;;;;;;;4.95;1.60;;;;;;;-145.76;100.00;65039.31;4983345;28;20517;-70
2022/06/20 10:16:39;;;;;;;5.00;1.63;;;;;;;-145.76;100.00;65039.31;4971477;28;20104;-70
2022/06/20 10:19:38;;;;;;;7.70;1.95;;;;;;;-145.76;100.00;65039.31;4995222;28;20045;-73
2022/06/20 10:22:04;;;;;;;6.85;1.60;;;;;;;-145.76;100.00;65039.31;4981202;28;20035;-70
2022/06/20 10:24:41;;;;;;;7.22;1.80;;;;;;;-145.76;100.00;65039.31;4992694;28;20379;-70
2022/06/20 10:27:35;;;;;;;8.10;1.75;;;;;;;-145.76;100.00;65039.31;4997699;28;20489;-70
2022/06/20 10:30:20;;;;;;;4.97;1.58;;;;;;;-145.76;100.00;65039.31;4993036;28;20037;-70
2022/06/20 10:32:48;;;;;;;7.30;1.60;;;;;;;-145.76;100.00;65039.31;4989152;28;20038;-70
2022/06/20 10:35:44;;;;;;;5.70;1.70;;;;;;;-145.76;100.00;65039.31;4990278;28;20058;-70
2022/06/20 10:38:36;;;;;;;5.75;1.27;;;;;;;-145.76;100.00;65039.31;4992924;28;20034;-70
2022/06/20 10:41:18;;;;;;;3.80;1.50;;;;;;;-145.76;100.00;65039.31;4958549;28;20073;-70
2022/06/20 10:44:03;;;;;;;6.50;1.52;;;;;;;-145.76;100.00;65039.31;4981757;28;20065;-70
2022/06/20 10:47:05;;;;;;;7.68;2.10;;;;;;;-145.76;100.00;65039.31;4989122;28;20113;-70
2022/06/20 10:49:58;;;;;;;7.07;2.47;;;;;;;-145.76;100.00;65039.31;4986112;28;20596;-70
2022/06/20 10:52:37;;;;;;;9.75;2.53;;;;;;;-145.76;100.00;65039.31;4969685;28;20045;-70
2022/06/20 10:55:40;;;;;;;9.00;1.85;;;;;;;-145.76;100.00;65039.31;4987738;28;20402;-70
2022/06/20 10:58:15;;;;;;;9.85;2.40;;;;;;;-145.76;100.00;65039.31;4993726;28;20470;-70
2022/06/20 11:08:12;;;;;;;11.70;1.83;;;;;;;23.08;49.81;101526.63;4991810;28;20393;-70
2022/06/20 11:22:25;;;;;;;7.75;2.05;;;;;;;25.80;41.07;101506.56;5072934;28;20961;-63
2022/06/20 11:25:20;;;;;;;7.03;2.20;;;;;;;24.43;42.93;101520.03;5067154;28;20044;-64
2022/06/20 11:27:51;;;;;;;5.32;1.52;;;;;;;23.88;40.88;101508.34;5059069;28;20071;-64
2022/06/20 11:30:40;;;;;;;4.38;1.58;;;;;;;23.75;42.90;101512.56;5042932;28;20044;-64
2022/06/20 11:33:05;;;;;;;10.02;2.22;;;;;;;23.38;44.24;101508.38;5041568;28;20060;-62
2022/06/20 11:35:37;;;;;;;6.68;1.75;;;;;;;23.50;46.08;101511.59;5031854;28;20115;-64
2022/06/20 11:38:21;;;;;;;7.78;1.95;;;;;;;24.33;42.87;101501.66;5039526;28;20024;-64
2022/06/20 11:40:57;;;;;;;9.70;2.03;;;;;;;24.01;42.16;101508.53;5036236;28;20017;-62
2022/06/20 11:44:06;;;;;;;6.75;1.83;;;;;;;23.83;44.97;101506.44;5019728;28;20069;-63
2022/06/20 11:46:49;;;;;;;5.68;1.92;;;;;;;24.48;41.20;101512.56;5018339;28;20057;-63
2022/06/20 11:49:33;;;;;;;10.90;2.03;;;;;;;24.20;42.39;101510.59;5017711;28;20438;-62
2022/06/20 11:52:27;;;;;;;6.60;1.90;;;;;;;23.22;46.05;101506.78;5013327;28;20042;-62
2022/06/20 11:55:08;;;;;;;7.35;1.92;;;;;;;23.31;45.09;101513.34;5015011;28;20026;-62
2022/06/20 11:58:00;;;;;;;7.90;1.88;;;;;;;23.86;44.43;101513.31;5006811;28;20034;-62
2022/06/20 12:00:33;;;;;;;10.13;2.40;;;;;;;23.28;45.96;101524.91;5021318;28;20117;-62
2022/06/20 12:03:05;;;;;;;10.18;2.13;;;;;;;22.35;47.42;101528.94;5023607;28;20084;-62
2022/06/20 12:05:54;;;;;;;8.75;2.17;;;;;;;22.33;45.35;101522.91;5026103;28;20025;-62
2022/06/20 12:08:32;;;;;;;7.97;1.60;;;;;;;22.90;44.96;101515.38;5015255;28;20044;-62
2022/06/20 12:11:02;;;;;;;8.23;2.15;;;;;;;23.15;43.81;101515.31;5020383;28;20014;-61
2022/06/20 12:13:37;;;;;;;6.35;1.77;;;;;;;23.95;42.13;101515.19;5012032;28;20453;-60